createdAt,value
2023-03-08T00:01:24.633Z,2.10
2023-03-08T00:03:54.515Z,2.10
2023-03-08T00:06:23.210Z,2.10
2023-03-08T00:08:51.832Z,2.10
2023-03-08T00:11:21.414Z,2.10
2023-03-08T00:13:50.187Z,2.10
2023-03-08T00:16:20.163Z,2.00
2023-03-08T00:18:48.961Z,2.00
2023-03-08T00:21:19.092Z,2.00
2023-03-08T00:23:48.138Z,2.00
2023-03-08T00:26:16.325Z,2.00
2023-03-08T00:28:47.489Z,1.90
2023-03-08T00:31:16.177Z,1.90
2023-03-08T00:33:44.687Z,1.90
2023-03-08T00:36:16.528Z,1.80
2023-03-08T00:38:45.726Z,1.80
2023-03-08T00:41:13.958Z,1.70
2023-03-08T00:43:43.499Z,1.70
2023-03-08T00:46:13.993Z,1.70
2023-03-08T00:48:43.435Z,1.70
2023-03-08T00:51:14.860Z,1.70
2023-03-08T00:53:43.439Z,1.60
2023-03-08T00:56:11.916Z,1.60
2023-03-08T00:58:41.900Z,1.60
2023-03-08T01:01:16.798Z,1.60
2023-03-08T01:03:45.447Z,1.50
2023-03-08T01:06:15.776Z,1.50
2023-03-08T01:08:44.606Z,1.50
2023-03-08T01:11:21.795Z,1.40
2023-03-08T01:13:51.216Z,1.40
2023-03-08T01:16:22.843Z,1.30
2023-03-08T01:18:51.634Z,1.30
2023-03-08T01:21:19.905Z,1.20
2023-03-08T01:23:49.598Z,1.20
2023-03-08T01:26:19.367Z,1.20
2023-03-08T01:28:48.270Z,1.10
2023-03-08T01:31:18.289Z,1.10
2023-03-08T01:33:49.435Z,1.00
2023-03-08T01:36:20.205Z,1.00
2023-03-08T01:38:49.429Z,0.90
2023-03-08T01:41:19.787Z,0.90
2023-03-08T01:43:49.176Z,0.90
2023-03-08T01:46:28.015Z,0.80
2023-03-08T01:49:04.715Z,0.70
2023-03-08T01:51:38.488Z,0.70
2023-03-08T01:54:11.267Z,0.70
2023-03-08T01:56:41.817Z,0.60
2023-03-08T01:59:10.896Z,0.60
2023-03-08T02:01:40.170Z,0.60
2023-03-08T02:04:11.426Z,0.60
2023-03-08T02:06:40.051Z,0.60
2023-03-08T02:09:08.628Z,0.70
2023-03-08T02:11:40.291Z,0.70
2023-03-08T02:14:08.756Z,0.70
2023-03-08T02:16:37.187Z,0.70
2023-03-08T02:19:09.308Z,0.80
2023-03-08T02:21:39.155Z,0.70
2023-03-08T02:24:36.436Z,0.70
2023-03-08T02:27:24.792Z,0.70
2023-03-08T02:29:53.635Z,0.70
2023-03-08T02:32:21.819Z,0.60
2023-03-08T02:34:50.270Z,0.60
2023-03-08T02:37:18.533Z,0.60
2023-03-08T02:39:48.314Z,0.60
2023-03-08T02:42:16.759Z,0.60
2023-03-08T02:44:45.249Z,0.60
2023-03-08T02:47:13.766Z,0.50
2023-03-08T02:49:42.262Z,0.30
2023-03-08T02:52:10.458Z,0.50
2023-03-08T02:54:39.000Z,0.50
2023-03-08T02:57:08.651Z,0.40
2023-03-08T02:59:37.166Z,0.40
2023-03-08T03:02:05.423Z,0.40
2023-03-08T03:04:34.867Z,0.40
2023-03-08T03:07:03.115Z,0.40
2023-03-08T03:09:31.887Z,0.40
2023-03-08T03:12:01.806Z,0.30
2023-03-08T03:14:31.653Z,0.30
2023-03-08T03:17:00.063Z,0.30
2023-03-08T03:19:28.636Z,0.30
2023-03-08T03:21:56.819Z,0.20
2023-03-08T03:24:25.305Z,0.20
2023-03-08T03:26:54.097Z,0.20
2023-03-08T03:29:22.857Z,0.20
2023-03-08T03:31:52.434Z,0.00
2023-03-08T03:34:20.867Z,0.10
2023-03-08T03:36:49.147Z,0.10
2023-03-08T03:39:17.616Z,0.10
2023-03-08T03:41:45.753Z,0.10
2023-03-08T03:44:14.254Z,0.10
2023-03-08T03:46:42.483Z,0.10
2023-03-08T03:49:12.297Z,0.10
2023-03-08T03:51:40.437Z,0.10
2023-03-08T03:54:09.073Z,0.00
2023-03-08T03:56:37.300Z,0.00
2023-03-08T03:59:05.771Z,0.10
2023-03-08T04:01:34.304Z,0.00
2023-03-08T04:04:02.908Z,-0.10
2023-03-08T04:06:34.417Z,-0.10
2023-03-08T04:09:05.588Z,-0.10
2023-03-08T04:11:36.802Z,-0.10
2023-03-08T04:14:06.093Z,-0.10
2023-03-08T04:16:36.417Z,-0.20
2023-03-08T04:19:07.256Z,-0.20
2023-03-08T04:21:36.875Z,-0.20
2023-03-08T04:24:06.197Z,-0.20
2023-03-08T04:26:34.450Z,-0.20
2023-03-08T04:29:06.252Z,-0.30
2023-03-08T04:31:37.073Z,-0.30
2023-03-08T04:34:05.748Z,-0.30
2023-03-08T04:36:33.994Z,-0.40
2023-03-08T04:39:03.889Z,-0.40
2023-03-08T04:41:32.085Z,-0.40
2023-03-08T04:44:00.640Z,-0.50
2023-03-08T04:46:29.465Z,-0.50
2023-03-08T04:48:58.080Z,-0.50
2023-03-08T04:51:28.058Z,-0.50
2023-03-08T04:53:56.732Z,-0.60
2023-03-08T04:56:26.635Z,-0.60
2023-03-08T04:58:55.108Z,-0.60
2023-03-08T05:01:24.676Z,-0.60
2023-03-08T05:03:53.850Z,-0.60
2023-03-08T05:06:24.573Z,-0.60
2023-03-08T05:08:53.635Z,-0.70
2023-03-08T05:11:24.587Z,-0.70
2023-03-08T05:13:55.544Z,-0.70
2023-03-08T05:16:24.555Z,-0.70
2023-03-08T05:18:53.355Z,-0.70
2023-03-08T05:21:23.362Z,-0.70
2023-03-08T05:23:51.837Z,-0.70
2023-03-08T05:26:20.291Z,-0.70
2023-03-08T05:28:49.027Z,-0.70
2023-03-08T05:31:21.060Z,-0.70
2023-03-08T05:33:51.270Z,-0.70
2023-03-08T05:36:20.659Z,-0.80
2023-03-08T05:38:49.272Z,-0.70
2023-03-08T05:41:18.252Z,-0.70
2023-03-08T05:43:46.728Z,-0.70
2023-03-08T05:46:18.889Z,-0.70
2023-03-08T05:48:47.868Z,-0.60
2023-03-08T05:51:17.811Z,-0.60
2023-03-08T05:53:47.072Z,-0.50
2023-03-08T05:56:16.693Z,-0.40
2023-03-08T05:58:48.037Z,-0.30
2023-03-08T06:01:20.095Z,-0.10
2023-03-08T06:03:50.027Z,0.20
2023-03-08T06:06:20.442Z,0.50
2023-03-08T06:08:49.424Z,0.90
2023-03-08T06:11:17.813Z,1.10
2023-03-08T06:13:46.326Z,1.40
2023-03-08T06:16:14.861Z,1.70
2023-03-08T06:18:45.137Z,2.00
2023-03-08T06:21:15.629Z,2.30
2023-03-08T06:23:45.601Z,2.50
2023-03-08T06:26:14.538Z,2.70
2023-03-08T06:28:43.817Z,2.90
2023-03-08T06:31:14.805Z,3.00
2023-03-08T06:33:44.948Z,3.20
2023-03-08T06:36:15.832Z,3.40
2023-03-08T06:38:45.026Z,3.60
2023-03-08T06:41:14.799Z,3.80
2023-03-08T06:43:43.650Z,4.00
2023-03-08T06:46:14.122Z,4.20
2023-03-08T06:48:44.309Z,4.50
2023-03-08T06:51:12.520Z,4.70
2023-03-08T06:53:41.180Z,4.80
2023-03-08T06:56:10.446Z,5.10
2023-03-08T06:58:39.261Z,5.20
2023-03-08T07:01:09.742Z,5.40
2023-03-08T07:03:38.867Z,5.60
2023-03-08T07:06:10.612Z,5.80
2023-03-08T07:08:40.388Z,5.90
2023-03-08T07:11:09.766Z,6.10
2023-03-08T07:13:38.900Z,6.20
2023-03-08T07:16:09.329Z,6.30
2023-03-08T07:18:37.931Z,6.40
2023-03-08T07:21:10.250Z,6.50
2023-03-08T07:23:38.925Z,6.70
2023-03-08T07:26:07.547Z,6.80
2023-03-08T07:28:37.081Z,6.90
2023-03-08T07:31:05.719Z,7.10
2023-03-08T07:33:35.266Z,7.20
2023-03-08T07:36:03.669Z,7.40
2023-03-08T07:38:33.603Z,7.60
2023-03-08T07:41:01.836Z,7.80
2023-03-08T07:43:30.414Z,8.00
2023-03-08T07:46:01.786Z,8.30
2023-03-08T07:48:30.905Z,8.50
2023-03-08T07:51:03.599Z,8.80
2023-03-08T07:53:34.240Z,9.00
2023-03-08T07:56:02.656Z,9.20
2023-03-08T07:58:31.433Z,9.30
2023-03-08T08:00:59.765Z,9.40
2023-03-08T08:03:30.459Z,9.50
2023-03-08T08:06:02.436Z,9.50
2023-03-08T08:08:31.102Z,9.50
2023-03-08T08:11:00.829Z,9.40
2023-03-08T08:13:29.346Z,9.40
2023-03-08T08:26:26.528Z,9.30
2023-03-08T08:28:55.872Z,9.40
2023-03-08T08:31:25.727Z,9.50
2023-03-08T08:33:54.332Z,9.60
2023-03-08T08:36:22.749Z,9.70
2023-03-08T08:38:51.553Z,9.70
2023-03-08T08:41:21.560Z,9.60
2023-03-08T08:43:52.324Z,9.40
2023-03-08T08:46:20.676Z,9.30
2023-03-08T08:48:49.175Z,9.20
2023-03-08T08:51:17.478Z,9.30
2023-03-08T08:53:46.024Z,9.20
2023-03-08T08:56:26.186Z,9.10
2023-03-08T08:58:58.470Z,9.20
2023-03-08T09:01:29.320Z,9.30
2023-03-08T09:03:57.889Z,9.20
2023-03-08T09:06:27.436Z,9.10
2023-03-08T09:08:58.227Z,9.20
2023-03-08T09:11:28.491Z,9.30
2023-03-08T09:13:58.773Z,9.30
2023-03-08T09:16:28.513Z,9.20
2023-03-08T09:18:58.790Z,9.00
2023-03-08T09:21:28.376Z,8.90
2023-03-08T09:23:57.304Z,8.70
2023-03-08T09:26:25.529Z,8.50
2023-03-08T09:28:54.049Z,8.50
2023-03-08T09:31:24.092Z,8.60
2023-03-08T09:33:53.208Z,8.60
2023-03-08T09:36:21.935Z,8.60
2023-03-08T09:38:52.881Z,8.40
2023-03-08T09:41:40.557Z,8.20
2023-03-08T09:44:19.250Z,8.00
2023-03-08T09:46:54.370Z,7.70
2023-03-08T09:49:28.528Z,7.50
2023-03-08T09:52:07.760Z,7.30
2023-03-08T09:54:38.901Z,7.40
2023-03-08T09:57:12.251Z,7.50
2023-03-08T09:59:45.941Z,7.50
2023-03-08T10:02:25.053Z,7.60
2023-03-08T10:05:12.234Z,7.40
2023-03-08T10:07:50.933Z,7.30
2023-03-08T10:10:34.780Z,7.20
2023-03-08T10:13:24.632Z,7.10
2023-03-08T10:15:59.169Z,6.90
2023-03-08T10:18:33.288Z,6.80
2023-03-08T10:21:03.261Z,6.70
2023-03-08T10:23:33.670Z,6.60
2023-03-08T10:26:03.637Z,6.60
2023-03-08T10:28:32.134Z,6.50
2023-03-08T10:31:04.547Z,6.40
2023-03-08T10:33:36.795Z,6.40
2023-03-08T10:36:12.700Z,6.40
2023-03-08T10:38:41.016Z,6.40
2023-03-08T10:41:15.673Z,6.40
2023-03-08T10:43:47.830Z,6.30
2023-03-08T10:46:19.437Z,6.30
2023-03-08T10:48:49.566Z,6.40
2023-03-08T10:51:19.453Z,6.30
2023-03-08T10:53:55.506Z,6.40
2023-03-08T10:56:27.632Z,6.40
2023-03-08T10:58:58.334Z,6.30
2023-03-08T11:01:29.387Z,6.30
2023-03-08T11:04:05.436Z,6.30
2023-03-08T11:06:36.233Z,6.30
2023-03-08T11:09:19.355Z,6.30
2023-03-08T11:11:47.884Z,6.30
2023-03-08T11:14:16.758Z,6.30
2023-03-08T11:17:06.691Z,6.30
2023-03-08T11:19:49.502Z,6.20
2023-03-08T11:22:28.972Z,6.10
2023-03-08T11:25:12.394Z,6.10
2023-03-08T11:27:58.713Z,6.00
2023-03-08T11:30:37.142Z,6.00
2023-03-08T11:33:24.514Z,6.00
2023-03-08T11:36:00.858Z,6.00
2023-03-08T11:38:31.388Z,6.00
2023-03-08T11:41:07.954Z,5.80
2023-03-08T11:43:58.635Z,5.70
2023-03-08T11:46:31.674Z,5.50
2023-03-08T11:49:17.243Z,5.40
2023-03-08T11:51:54.074Z,5.10
2023-03-08T11:54:34.910Z,5.00
2023-03-08T11:57:05.343Z,4.80
2023-03-08T11:59:36.653Z,4.80
2023-03-08T12:02:15.056Z,4.80
2023-03-08T12:04:49.436Z,4.90
2023-03-08T12:07:35.407Z,4.90
2023-03-08T12:10:16.248Z,5.10
2023-03-08T12:12:49.154Z,5.20
2023-03-08T12:15:25.767Z,5.40
2023-03-08T12:17:58.298Z,5.40
2023-03-08T12:20:32.874Z,5.50
2023-03-08T12:23:11.285Z,5.50
2023-03-08T12:25:42.792Z,5.50
2023-03-08T12:28:17.745Z,5.60
2023-03-08T12:31:01.024Z,5.60
2023-03-08T12:33:32.409Z,5.70
2023-03-08T12:36:03.397Z,5.80
2023-03-08T12:38:37.165Z,5.80
2023-03-08T12:41:07.323Z,5.90
2023-03-08T12:43:38.053Z,5.90
2023-03-08T12:46:08.963Z,6.00
2023-03-08T12:48:47.639Z,6.10
2023-03-08T12:51:24.123Z,6.20
2023-03-08T12:54:02.539Z,6.30
2023-03-08T12:56:33.851Z,6.30
2023-03-08T12:59:03.974Z,6.40
2023-03-08T13:01:36.281Z,6.40
2023-03-08T13:04:06.227Z,6.50
2023-03-08T13:06:59.930Z,6.50
2023-03-08T13:09:32.908Z,6.60
2023-03-08T13:12:18.540Z,6.60
2023-03-08T13:14:59.566Z,6.70
2023-03-08T13:17:39.434Z,6.70
2023-03-08T13:20:19.497Z,6.70
2023-03-08T13:23:03.728Z,6.80
2023-03-08T13:25:55.794Z,6.70
2023-03-08T13:28:30.482Z,6.70
2023-03-08T13:31:16.754Z,6.70
2023-03-08T13:33:48.228Z,6.70
2023-03-08T13:36:20.025Z,6.70
2023-03-08T13:38:58.736Z,6.70
2023-03-08T13:41:36.902Z,6.80
2023-03-08T13:44:07.635Z,6.80
2023-03-08T13:46:37.299Z,6.70
2023-03-08T13:49:17.206Z,6.70
2023-03-08T13:51:48.471Z,6.70
2023-03-08T13:54:18.621Z,6.70
2023-03-08T13:56:54.166Z,6.70
2023-03-08T13:59:23.126Z,6.60
2023-03-08T14:01:53.223Z,6.60
2023-03-08T14:04:24.386Z,6.60
2023-03-08T14:06:54.703Z,6.50
2023-03-08T14:09:23.896Z,6.50
2023-03-08T14:12:00.674Z,6.50
2023-03-08T14:14:32.282Z,6.50
2023-03-08T14:17:01.544Z,6.50
2023-03-08T14:19:32.418Z,6.40
2023-03-08T14:22:02.936Z,6.40
2023-03-08T14:24:33.890Z,6.30
2023-03-08T14:27:05.334Z,6.20
2023-03-08T14:29:36.147Z,6.10
2023-03-08T14:32:08.038Z,6.10
2023-03-08T14:34:39.509Z,6.00
2023-03-08T14:37:14.771Z,6.00
2023-03-08T14:39:45.656Z,5.90
2023-03-08T14:42:23.540Z,5.90
2023-03-08T14:44:53.831Z,5.90
2023-03-08T14:47:25.091Z,5.80
2023-03-08T14:49:58.173Z,5.80
2023-03-08T14:52:28.477Z,5.70
2023-03-08T14:54:57.267Z,5.60
2023-03-08T14:57:28.941Z,5.50
2023-03-08T15:00:07.849Z,5.50
2023-03-08T15:02:37.706Z,5.40
2023-03-08T15:05:09.055Z,5.30
2023-03-08T15:07:37.982Z,5.30
2023-03-08T15:10:08.298Z,5.30
2023-03-08T15:12:37.837Z,5.20
2023-03-08T15:15:14.344Z,5.20
2023-03-08T15:17:42.658Z,5.20
2023-03-08T15:20:12.734Z,5.20
2023-03-08T15:22:45.083Z,5.20
2023-03-08T15:25:20.529Z,5.10
2023-03-08T15:27:50.629Z,5.10
2023-03-08T15:30:21.633Z,5.10
2023-03-08T15:32:50.262Z,5.00
2023-03-08T15:35:19.812Z,5.00
2023-03-08T15:37:48.261Z,5.00
2023-03-08T15:40:22.646Z,4.90
2023-03-08T15:42:52.619Z,4.90
2023-03-08T15:45:21.719Z,4.90
2023-03-08T15:47:58.261Z,4.90
2023-03-08T15:50:27.800Z,4.80
2023-03-08T15:52:56.605Z,4.70
2023-03-08T15:55:26.598Z,4.70
2023-03-08T15:57:56.520Z,4.60
2023-03-08T16:00:25.984Z,4.60
2023-03-08T16:02:54.878Z,4.50
2023-03-08T16:05:25.167Z,4.50
2023-03-08T16:07:58.080Z,4.40
2023-03-08T16:10:27.743Z,4.40
2023-03-08T16:12:57.536Z,4.30
2023-03-08T16:15:26.442Z,4.30
2023-03-08T16:17:54.859Z,4.20
2023-03-08T16:20:23.492Z,4.20
2023-03-08T16:22:52.086Z,4.10
2023-03-08T16:25:22.897Z,4.00
2023-03-08T16:27:52.670Z,4.00
2023-03-08T16:30:23.055Z,3.90
2023-03-08T16:32:53.937Z,3.80
2023-03-08T16:35:22.550Z,3.70
2023-03-08T16:37:50.802Z,3.60
2023-03-08T16:40:19.737Z,3.50
2023-03-08T16:42:50.818Z,3.40
2023-03-08T16:45:19.735Z,3.30
2023-03-08T16:47:49.493Z,3.30
2023-03-08T16:50:18.470Z,3.20
2023-03-08T16:52:46.718Z,3.10
2023-03-08T16:55:15.285Z,3.10
2023-03-08T16:57:43.546Z,3.00
2023-03-08T17:00:13.357Z,2.90
2023-03-08T17:02:41.741Z,2.80
2023-03-08T17:05:13.972Z,2.70
2023-03-08T17:07:42.280Z,2.70
2023-03-08T17:10:11.912Z,2.60
2023-03-08T17:12:40.102Z,2.50
2023-03-08T17:15:10.929Z,2.50
2023-03-08T17:17:39.799Z,2.40
2023-03-08T17:20:14.084Z,2.30
2023-03-08T17:22:42.737Z,2.30
2023-03-08T17:25:11.437Z,2.20
2023-03-08T17:27:39.552Z,2.20
2023-03-08T17:30:10.196Z,2.20
2023-03-08T17:32:38.503Z,2.20
2023-03-08T17:35:08.092Z,2.20
2023-03-08T17:37:41.796Z,2.20
2023-03-08T17:40:12.676Z,2.20
2023-03-08T17:42:40.991Z,2.20
2023-03-08T17:45:10.316Z,2.20
2023-03-08T17:47:38.872Z,2.20
2023-03-08T17:50:08.722Z,2.30
2023-03-08T17:52:39.318Z,2.30
2023-03-08T17:55:08.330Z,2.30
2023-03-08T17:57:36.847Z,2.30
2023-03-08T18:00:10.928Z,2.30
2023-03-08T18:02:39.402Z,2.30
2023-03-08T18:05:09.156Z,2.30
2023-03-08T18:07:41.301Z,2.30
2023-03-08T18:10:12.341Z,2.30
2023-03-08T18:12:44.739Z,2.30
2023-03-08T18:15:14.483Z,2.30
2023-03-08T18:17:42.890Z,2.30
2023-03-08T18:20:12.501Z,2.30
2023-03-08T18:22:42.142Z,2.30
2023-03-08T18:25:11.346Z,2.30
2023-03-08T18:27:40.410Z,2.30
2023-03-08T18:30:11.885Z,2.30
2023-03-08T18:32:40.515Z,2.30
2023-03-08T18:35:09.840Z,2.30
2023-03-08T18:37:38.108Z,2.30
2023-03-08T18:40:12.113Z,2.30
2023-03-08T18:42:40.587Z,2.30
2023-03-08T18:45:10.762Z,2.40
2023-03-08T18:47:39.744Z,2.40
2023-03-08T18:50:12.725Z,2.30
2023-03-08T18:52:40.939Z,2.40
2023-03-08T18:55:12.925Z,2.40
2023-03-08T18:57:41.562Z,2.40
2023-03-08T19:00:12.063Z,2.40
2023-03-08T19:02:40.373Z,2.40
2023-03-08T19:05:09.561Z,2.40
2023-03-08T19:07:37.903Z,2.40
2023-03-08T19:10:07.243Z,2.40
2023-03-08T19:12:38.014Z,2.40
2023-03-08T19:15:07.923Z,2.50
2023-03-08T19:17:36.132Z,2.40
2023-03-08T19:20:06.634Z,2.50
2023-03-08T19:22:34.921Z,2.50
2023-03-08T19:25:05.895Z,2.50
2023-03-08T19:27:36.135Z,2.50
2023-03-08T19:30:05.489Z,2.50
2023-03-08T19:32:33.946Z,2.50
2023-03-08T19:35:04.475Z,2.50
2023-03-08T19:37:32.839Z,2.50
2023-03-08T19:40:01.613Z,2.50
2023-03-08T19:42:29.834Z,2.50
2023-03-08T19:44:59.748Z,2.50
2023-03-08T19:47:28.033Z,2.50
2023-03-08T19:49:56.761Z,2.50
2023-03-08T19:52:25.155Z,2.50
2023-03-08T19:54:53.638Z,2.50
2023-03-08T19:57:21.824Z,2.50
2023-03-08T19:59:50.263Z,2.50
2023-03-08T20:02:19.919Z,2.50
2023-03-08T20:04:48.629Z,2.60
2023-03-08T20:07:16.811Z,2.50
2023-03-08T20:09:45.684Z,2.50
2023-03-08T20:12:14.012Z,2.50
2023-03-08T20:14:42.545Z,2.50
2023-03-08T20:17:10.748Z,2.50
2023-03-08T20:19:40.677Z,2.50
2023-03-08T20:22:08.992Z,2.40
2023-03-08T20:24:37.631Z,2.40
2023-03-08T20:27:05.844Z,2.40
2023-03-08T20:29:34.491Z,2.40
2023-03-08T20:32:02.746Z,2.30
2023-03-08T20:34:32.238Z,2.30
2023-03-08T20:37:01.882Z,2.30
2023-03-08T20:39:30.478Z,2.20
2023-03-08T20:41:58.647Z,2.20
2023-03-08T20:44:27.133Z,2.20
2023-03-08T20:46:55.289Z,2.20
2023-03-08T20:49:24.296Z,2.20
2023-03-08T20:51:52.541Z,2.20
2023-03-08T20:54:22.386Z,2.20
2023-03-08T20:56:50.720Z,2.10
2023-03-08T20:59:23.095Z,2.10
2023-03-08T21:01:51.706Z,2.10
2023-03-08T21:04:20.549Z,2.10
2023-03-08T21:06:49.575Z,2.10
2023-03-08T21:09:18.267Z,2.10
2023-03-08T21:11:48.097Z,2.10
2023-03-08T21:14:16.632Z,2.00
2023-03-08T21:16:44.845Z,2.00
2023-03-08T21:19:13.379Z,2.00
2023-03-08T21:21:43.505Z,2.00
2023-03-08T21:24:14.958Z,2.00
2023-03-08T21:26:43.640Z,2.00
2023-03-08T21:29:14.974Z,2.00
2023-03-08T21:31:44.978Z,2.00
2023-03-08T21:34:14.326Z,1.90
2023-03-08T21:36:42.698Z,1.90
2023-03-08T21:39:12.157Z,2.00
2023-03-08T21:41:42.937Z,1.90
2023-03-08T21:44:18.854Z,1.90
2023-03-08T21:46:47.768Z,1.90
2023-03-08T21:49:19.247Z,1.90
2023-03-08T21:51:47.401Z,1.90
2023-03-08T21:54:16.410Z,1.90
2023-03-08T21:56:44.705Z,1.90
2023-03-08T21:59:16.753Z,1.90
2023-03-08T22:01:48.140Z,1.90
2023-03-08T22:04:17.711Z,1.90
2023-03-08T22:06:46.392Z,1.90
2023-03-08T22:09:15.131Z,1.90
2023-03-08T22:11:43.335Z,1.90
2023-03-08T22:14:12.633Z,1.90
2023-03-08T22:16:42.263Z,1.80
2023-03-08T22:19:12.036Z,1.80
2023-03-08T22:21:40.320Z,1.80
2023-03-08T22:24:09.113Z,1.80
2023-03-08T22:26:37.404Z,1.80
2023-03-08T22:29:05.982Z,1.80
2023-03-08T22:31:34.531Z,1.80
2023-03-08T22:34:04.423Z,1.80
2023-03-08T22:36:32.581Z,1.80
2023-03-08T22:39:01.192Z,1.80
2023-03-08T22:41:29.690Z,1.80
2023-03-08T22:43:59.227Z,1.80
2023-03-08T22:46:28.849Z,1.80
2023-03-08T22:48:58.712Z,1.80
2023-03-08T22:51:28.703Z,1.80
2023-03-08T22:53:59.095Z,1.80
2023-03-08T22:56:30.182Z,1.80
2023-03-08T22:58:59.310Z,1.80
2023-03-08T23:01:28.997Z,1.80
2023-03-08T23:03:59.682Z,1.80
2023-03-08T23:06:31.859Z,1.80
2023-03-08T23:09:02.620Z,1.80
2023-03-08T23:11:31.269Z,1.80
2023-03-08T23:14:00.147Z,1.80
2023-03-08T23:16:29.201Z,1.80
2023-03-08T23:19:18.164Z,1.80
2023-03-08T23:21:48.460Z,1.80
2023-03-08T23:25:25.517Z,1.80
2023-03-08T23:27:54.923Z,1.80
2023-03-08T23:30:24.231Z,1.80
2023-03-08T23:32:52.933Z,1.80
2023-03-08T23:35:22.137Z,1.80
2023-03-08T23:37:52.214Z,1.80
2023-03-08T23:40:21.209Z,1.80
2023-03-08T23:42:49.416Z,1.80
2023-03-08T23:45:18.034Z,1.70
2023-03-08T23:47:46.325Z,1.70
2023-03-08T23:50:15.100Z,1.70
2023-03-08T23:52:43.267Z,1.70
2023-03-08T23:55:13.731Z,1.70
2023-03-08T23:57:42.153Z,1.70
